• Join FlightAware (Why Join?)
  • Login
  • US Flag 
02:49PM EDT


 

Airport Tracker/Info


-or-


 

Live Flight TrackerFlight Track Log ✈ DAL40 ✈ 15-May-2012 ✈ KMSP - EGLL / LHR

Flight Track Log - Related Links

Times and Time Zones

All times are in EDT time to prevent confusion due to time zone crossing. See the DAL40 flight status page for this flight to view local times or setup timezone preferences in your user account.

Time Position Orientation Groundspeed Altitude Reporting Facility
EDT Latitude Longitude Course Direction KTS MPH feet Rate Location/Type
10:52PM 44.9028 -93.2508 North 253 291 2,400  Level FAA TRACON SMA TRACON (SMA)
10:53PM 44.9389 -93.2497 North 192 221 3,100 1,440 Climbing FAA TRACON SMA TRACON (SMA)
10:53PM 44.9778 -93.2489 21° North 230 265 4,400 2,400 Climbing FAA TRACON SMA TRACON (SMA)
10:54PM 45.0222 -93.2250 65° Northeast 257 296 6,400 2,880 Climbing FAA TRACON SMA TRACON (SMA)
10:55PM 45.0450 -93.1572 67° East 283 326 8,300 2,580 Climbing FAA TRACON SMA TRACON (SMA)
10:55PM 45.0642 -93.0922 66° East 291 335 9,800 2,100 Climbing FAA TRACON SMA TRACON (SMA)
10:56PM 45.0883 -93.0142 66° East 318 366 11,100 1,620 Climbing FAA TRACON SMA TRACON (SMA)
10:57PM 45.1150 -92.9283 66° East 352 405 12,000 1,260 Climbing FAA TRACON SMA TRACON (SMA)
10:57PM 45.1422 -92.8433 67° East 390 449 12,800 1,860 Climbing FAA TRACON SMA TRACON (SMA)
10:58PM 45.1728 -92.7403 66° East 414 476 14,500 2,520 Climbing FAA TRACON SMA TRACON (SMA)
10:59PM 45.2053 -92.6350 67° East 422 486 16,200 2,400 Climbing FAA TRACON SMA TRACON (SMA)
10:59PM 45.2336 -92.5403 66° East 426 490 17,700 2,100 Climbing FAA TRACON SMA TRACON (SMA)
11:00PM 45.2675 -92.4306 67° East 438 504 19,000 1,800 Climbing FAA TRACON SMA TRACON (SMA)
11:01PM 45.2978 -92.3311 74° East 447 514 20,100 1,680 Climbing FAA TRACON SMA TRACON (SMA)
11:01PM 45.3222 -92.2089 77° East 467 537 21,300 1,800 Climbing FAA TRACON SMA TRACON (SMA)
11:02PM 45.3425 -92.0819 78° East 479 551 22,500 1,380 Climbing FAA TRACON SMA TRACON (SMA)
11:03PM 45.3558 -91.9953 82° East 487 560 23,200 1,560 Climbing FAA TRACON SMA TRACON (SMA)
11:04PM 45.3792 -91.7606 78° East 492 566 25,200 1,920 Climbing Minneapolis Center
11:05PM 45.4072 -91.5675 80° East 500 575 27,100 1,860 Climbing Minneapolis Center
11:06PM 45.4311 -91.3714 81° East 500 575 29,000 1,740 Climbing Minneapolis Center
11:07PM 45.4522 -91.1811 79° East 500 575 30,600 1,380 Climbing Minneapolis Center
11:08PM 45.4775 -90.9875 76° East 494 568 31,800 1,140 Climbing Minneapolis Center
11:09PM 45.5108 -90.8025 77° East 483 556 33,000 540 Climbing Minneapolis Center
11:10PM 45.5417 -90.6114 77° East 483 556 33,000  Level Minneapolis Center
11:11PM 45.5722 -90.4258 76° East 483 556 33,000  Level Minneapolis Center
11:12PM 45.6028 -90.2431 76° East 473 544 33,000  Level Minneapolis Center
11:13PM 45.6350 -90.0572 78° East 473 544 33,000  Level Minneapolis Center
11:14PM 45.6625 -89.8742 76° East 473 544 33,000  Level Minneapolis Center
11:15PM 45.6925 -89.7058 77° East 478 550 33,000  Level Minneapolis Center
11:16PM 45.7253 -89.4983 78° East 483 556 33,000  Level Minneapolis Center
11:17PM 45.7539 -89.3086 76° East 483 556 33,000  Level Minneapolis Center
11:18PM 45.7831 -89.1367 78° East 489 563 33,000  Level Minneapolis Center
11:19PM 45.8111 -88.9469 79° East 489 563 33,000  Level Minneapolis Center
11:20PM 45.8383 -88.7478 77° East 489 563 33,000  Level Minneapolis Center
11:21PM 45.8681 -88.5572 78° East 489 563 33,000  Level Minneapolis Center
11:22PM 45.8969 -88.3636 77° East 489 563 33,000  Level Minneapolis Center
11:23PM 45.9294 -88.1606 79° East 489 563 33,000  Level Minneapolis Center
11:24PM 45.9575 -87.9606 79° East 489 563 33,000  Level Minneapolis Center
11:25PM 45.9836 -87.7694 78° East 489 563 33,000  Level Minneapolis Center
11:26PM 46.0133 -87.5747 79° East 489 563 33,000  Level Minneapolis Center
11:27PM 46.0389 -87.3833 79° East 489 563 33,000  Level Minneapolis Center
11:28PM 46.0658 -87.1886 79° East 489 563 33,000  Level Minneapolis Center
11:29PM 46.0925 -86.9936 80° East 489 563 33,000  Level Minneapolis Center
11:30PM 46.1169 -86.8019 80° East 489 563 33,000  Level Minneapolis Center
11:31PM 46.1350 -86.6467 80° East 489 563 33,000  Level Minneapolis Center
11:32PM 46.1628 -86.4178 79° East 489 563 33,000  Level Minneapolis Center
11:33PM 46.1897 -86.2161 79° East 489 563 33,000  Level Minneapolis Center
11:34PM 46.2167 -86.0200 80° East 496 571 33,000  Level Minneapolis Center
11:35PM 46.2369 -85.8489 70° East 488 562 33,000  Level Minneapolis Center
11:36PM 46.2844 -85.6586 62° Northeast 488 562 33,000  Level Minneapolis Center
11:37PM 46.3497 -85.4836 61° Northeast 481 554 33,000  Level Minneapolis Center
11:38PM 46.4147 -85.3108 62° Northeast 488 562 33,000  Level Minneapolis Center
11:39PM 46.4792 -85.1319 62° Northeast 493 567 33,000  Level Minneapolis Center
11:40PM 46.5436 -84.9556 68° East 493 567 33,000  Level Minneapolis Center
11:41PM 46.6000 -84.7500 56° Northeast 490 564 33,000  Level Toronto Center
11:42PM 46.6833 -84.5667 66° East 490 564 33,000  Level Toronto Center
11:43PM 46.7333 -84.4000 60° Northeast 500 575 33,000  Level Toronto Center
11:44PM 46.8000 -84.2333 62° Northeast 500 575 33,000  Level Toronto Center
11:45PM 46.8667 -84.0500 70° East 500 575 33,000  Level Toronto Center
11:46PM 46.9167 -83.8500 56° Northeast 500 575 33,000  Level Toronto Center
11:47PM 47.0000 -83.6667 66° East 500 575 33,000  Level Toronto Center
11:48PM 47.0500 -83.5000 70° East 510 587 33,000  Level Toronto Center
11:49PM 47.1000 -83.3000 56° Northeast 510 587 33,000  Level Toronto Center
11:50PM 47.1833 -83.1167 70° East 510 587 33,000  Level Toronto Center
11:51PM 47.2333 -82.9167 59° Northeast 510 587 33,000  Level Toronto Center
11:52PM 47.3000 -82.7500 62° Northeast 510 587 33,000  Level Toronto Center
11:53PM 47.3667 -82.5667 64° Northeast 510 587 33,000  Level Toronto Center
11:54PM 47.4333 -82.3667 70° East 520 598 33,000  Level Toronto Center
11:55PM 47.4833 -82.1667 56° Northeast 520 598 33,000  Level Toronto Center
11:56PM 47.5667 -81.9833 70° East 530 610 33,000  Level Toronto Center
11:57PM 47.6167 -81.7833 64° Northeast 530 610 33,000  Level Toronto Center
11:58PM 47.6833 -81.5833 70° East 530 610 33,000  Level Toronto Center
11:59PM 47.7333 -81.3833 62° Northeast 530 610 33,000  Level Toronto Center
12:00AM 47.8000 -81.2000 70° East 520 598 33,000  Level Toronto Center
12:01AM 47.8500 -81.0000 58° Northeast 520 598 33,000  Level Toronto Center
12:02AM 47.9333 -80.8000 69° East 520 598 33,000  Level Toronto Center
12:03AM 47.9833 -80.6000 63° Northeast 520 598 33,000  Level Toronto Center
12:04AM 48.0500 -80.4000 66° East 510 587 33,000  Level Toronto Center
12:05AM 48.1000 -80.2333 69° East 510 587 33,000  Level Toronto Center
12:06AM 48.1500 -80.0333 59° Northeast 500 575 33,000  Level Toronto Center
12:06AM 48.1833 -79.9500 63° Northeast 500 575 33,000  Level Montreal Center
12:07AM 48.2500 -79.7500 66° East 500 575 33,000  Level Montreal Center
12:08AM 48.3000 -79.5833 63° Northeast 500 575 33,000  Level Montreal Center
12:09AM 48.3667 -79.3833 69° East 500 575 33,000  Level Montreal Center
12:10AM 48.4167 -79.1833 66° East 500 575 33,000  Level Montreal Center
12:11AM 48.4667 -79.0167 63° Northeast 500 575 33,000  Level Montreal Center
12:12AM 48.5333 -78.8167 69° East 500 575 33,000  Level Montreal Center
12:13AM 48.5833 -78.6167 71° East 500 575 33,000  Level Montreal Center
12:14AM 48.6333 -78.4000 63° Northeast 510 587 33,000  Level Montreal Center
12:15AM 48.7000 -78.2000 69° East 510 587 33,000  Level Montreal Center
12:16AM 48.7500 -78.0000 69° East 510 587 33,000  Level Montreal Center
12:17AM 48.8000 -77.8000 69° East 510 587 33,000  Level Montreal Center
12:18AM 48.8500 -77.6000 69° East 510 587 33,000  Level Montreal Center
12:19AM 48.9000 -77.4000 63° Northeast 520 598 33,000  Level Montreal Center
12:20AM 48.9667 -77.2000 71° East 520 598 33,000  Level Montreal Center
12:21AM 49.0167 -76.9833 69° East 510 587 33,000  Level Montreal Center
12:22AM 49.0667 -76.7833 67° East 510 587 33,000  Level Montreal Center
12:23AM 49.1167 -76.6000 70° East 510 587 33,000  Level Montreal Center
12:24AM 49.1667 -76.3833 67° East 510 587 33,000  Level Montreal Center
12:25AM 49.2167 -76.2000 69° East 500 575 33,000  Level Montreal Center
12:26AM 49.2667 -76.0000 70° East 500 575 33,000  Level Montreal Center
12:27AM 49.3167 -75.7833 69° East 500 575 33,000  Level Montreal Center
12:28AM 49.3667 -75.5833 67° East 500 575 33,000  Level Montreal Center
12:29AM 49.4167 -75.4000 70° East 500 575 33,000 -240 Level Montreal Center
12:30AM 49.4667 -75.1833 69° East 490 564 32,600 -540 Descending Montreal Center
12:31AM 49.5167 -74.9833 70° East 500 575 32,000 -300 Descending Montreal Center
12:32AM 49.5667 -74.7667 67° East 500 575 32,000  Level Montreal Center
12:33AM 49.6167 -74.5833 69° East 490 564 32,000  Level Montreal Center
12:34AM 49.6667 -74.3833 77° East 490 564 32,000 -240 Level Montreal Center
12:35AM 49.7000 -74.1667 67° East 490 564 31,600 -420 Descending Montreal Center
12:36AM 49.7500 -73.9833 69° East 490 564 31,200 -300 Descending Montreal Center
12:37AM 49.8000 -73.7833 74° East 490 564 31,000 -120 Descending Montreal Center
12:38AM 49.8333 -73.6000 64° Northeast 490 564 31,000  Level Montreal Center
12:39AM 49.9000 -73.3833 82° East 500 575 31,000  Level Montreal Center
12:40AM 49.9167 -73.2000 70° East 490 564 31,000  Level Montreal Center
12:41AM 49.9667 -72.9833 70° East 490 564 31,000  Level Montreal Center
12:42AM 50.0167 -72.7667 75° East 490 564 31,000  Level Montreal Center
12:43AM 50.0500 -72.5667 69° East 490 564 31,000  Level Montreal Center
12:44AM 50.1000 -72.3667 70° East 480 552 31,000  Level Montreal Center
12:45AM 50.1500 -72.1500 74° East 480 552 31,000  Level Montreal Center
12:46AM 50.1833 -71.9667 67° East 480 552 31,000  Level Montreal Center
12:47AM 50.2333 -71.7833 70° East 480 552 31,000  Level Montreal Center
12:48AM 50.2833 -71.5667 74° East 480 552 31,000  Level Montreal Center
12:49AM 50.3167 -71.3833 70° East 480 552 31,000  Level Montreal Center
12:50AM 50.3667 -71.1667 82° East 480 552 31,000  Level Montreal Center
12:51AM 50.3833 -70.9833 70° East 480 552 31,000  Level Montreal Center
12:52AM 50.4333 -70.7667 75° East 480 552 31,000  Level Montreal Center
12:53AM 50.4667 -70.5667 70° East 480 552 31,000  Level Montreal Center
12:54AM 50.5167 -70.3500 74° East 480 552 31,000  Level Montreal Center
12:55AM 50.5500 -70.1667 76° East 480 552 31,000  Level Montreal Center
12:56AM 50.5833 -69.9500 75° East 480 552 31,000  Level Montreal Center
12:57AM 50.6167 -69.7500 74° East 480 552 31,000  Level Montreal Center
12:58AM 50.6500 -69.5667 76° East 480 552 31,000  Level Montreal Center
12:59AM 50.6833 -69.3500 68° East 480 552 31,000  Level Montreal Center
01:00AM 50.7333 -69.1500 76° East 480 552 31,000  Level Montreal Center
01:01AM 50.7667 -68.9333 75° East 490 564 31,000  Level Montreal Center
01:02AM 50.8000 -68.7333 70° East 490 564 31,000  Level Montreal Center
01:03AM 50.8500 -68.5167 76° East 490 564 31,000  Level Montreal Center
01:04AM 50.8833 -68.3000 75° East 490 564 31,000  Level Montreal Center
01:05AM 50.9167 -68.1000 76° East 490 564 31,000  Level Montreal Center
01:06AM 50.9500 -67.8833 74° East 490 564 31,000  Level Montreal Center
01:07AM 50.9833 -67.7000 77° East 490 564 31,000  Level Montreal Center
01:08AM 51.0167 -67.4667 76° East 490 564 31,000  Level Montreal Center
01:09AM 51.0500 -67.2500 68° East 490 564 31,000  Level Montreal Center
01:10AM 51.1000 -67.0500 76° East 490 564 31,000  Level Montreal Center
01:11AM 51.1333 -66.8333 83° East 490 564 31,000  Level Montreal Center
01:12AM 51.1500 -66.6167 77° East 490 564 31,000  Level Montreal Center
01:13AM 51.1833 -66.3833 75° East 490 564 31,000  Level Montreal Center
01:14AM 51.2167 -66.1833 76° East 490 564 31,000  Level Montreal Center
01:15AM 51.2500 -65.9667 76° East 500 575 31,000  Level Montreal Center
01:16AM 51.2833 -65.7500 75° East 500 575 31,000  Level Montreal Center
01:17AM 51.3167 -65.5500 80° East 500 575 31,000  Level Montreal Center
01:18AM 51.3333 -65.4000 75° East 500 575 31,000  Level Gander Center
01:19AM 51.3667 -65.2000 78° East 500 575 31,000  Level Gander Center
01:20AM 51.4000 -64.9500 82° East 500 575 31,000  Level Gander Center
01:21AM 51.4167 -64.7500 72° East 500 575 31,000  Level Gander Center
01:22AM 51.4667 -64.5000 82° East 500 575 31,000  Level Gander Center
01:23AM 51.4833 -64.3167 76° East 500 575 31,000  Level Gander Center
01:24AM 51.5167 -64.1000 77° East 500 575 31,000  Level Gander Center
01:25AM 51.5500 -63.8667 83° East 500 575 31,000  Level Gander Center
01:26AM 51.5667 -63.6500 77° East 500 575 31,000  Level Gander Center
01:27AM 51.6000 -63.4167 76° East 500 575 31,000  Level Gander Center
01:28AM 51.6333 -63.2000 76° East 500 575 31,000  Level Gander Center
01:29AM 51.6667 -62.9833 83° East 500 575 31,000  Level Gander Center
01:30AM 51.6833 -62.7667 83° East 500 575 31,000 240 Level Gander Center
01:31AM 51.7000 -62.5500 78° East 500 575 31,500 600 Climbing Gander Center
01:32AM 51.7333 -62.3000 82° East 500 575 32,300 720 Climbing Gander Center
01:33AM 51.7500 -62.1000 78° East 500 575 33,000 300 Climbing Gander Center
01:34AM 51.7833 -61.8500 83° East 510 587 33,000  Level Gander Center
01:35AM 51.8000 -61.6333 83° East 510 587 33,000  Level Gander Center
01:36AM 51.8167 -61.4167 76° East 510 587 33,000  Level Gander Center
01:37AM 51.8500 -61.2000 83° East 500 575 33,000  Level Gander Center
01:38AM 51.8667 -60.9833 78° East 500 575 33,000  Level Gander Center
01:39AM 51.9000 -60.7333 76° East 500 575 33,000  Level Gander Center
01:40AM 51.9333 -60.5167 69° East 510 587 33,000  Level Gander Center
01:41AM 51.9833 -60.3000 76° East 510 587 33,000  Level Gander Center
01:42AM 52.0167 -60.0833 69° East 500 575 33,000  Level Gander Center
01:43AM 52.0667 -59.8667 66° East 500 575 33,000  Level Gander Center
01:44AM 52.1167 -59.6833 72° East 510 587 33,000  Level Gander Center
01:45AM 52.1667 -59.4333 75° East 510 587 33,000  Level Gander Center
01:46AM 52.2000 -59.2333 72° East 510 587 33,000  Level Gander Center
01:47AM 52.2500 -58.9833 73° East 510 587 33,000  Level Gander Center
01:48AM 52.2833 -58.8000 72° East 510 587 33,000  Level Gander Center
01:49AM 52.3333 -58.5500 77° East 510 587 33,000  Level Gander Center
01:50AM 52.3667 -58.3167 66° East 510 587 33,000  Level Gander Center
01:51AM 52.4167 -58.1333 78° East 510 587 33,000  Level Gander Center
01:52AM 52.4500 -57.8833 75° East 510 587 33,000  Level Gander Center
01:53AM 52.4833 -57.6833 72° East 510 587 33,000  Level Gander Center
01:54AM 52.5333 -57.4333 68° East 510 587 33,000 240 Level Gander Center
01:55AM 52.5833 -57.2333 78° East 500 575 33,500 480 Climbing Gander Center
01:56AM 52.6167 -56.9833 75° East 500 575 34,000 240 Climbing Gander Center
01:57AM 52.6500 -56.7833 76° East 510 587 34,000  Level Gander Center
01:58AM 52.6833 -56.5667 70° East 500 575 34,000  Level Gander Center
01:59AM 52.7333 -56.3333 82° East 490 564 34,000  Level Gander Center
02:00AM 52.7500 -56.1333 77° East 490 564 34,000  Level Gander Center
02:01AM 52.7833 -55.8833 67° East 490 564 34,000  Level Gander Center
02:02AM 52.8333 -55.6833 83° East 500 575 34,000  Level Gander Center
02:03AM 52.8500 -55.4667 70° East 490 564 34,000  Level Gander Center
02:04AM 52.9000 -55.2333 77° East 490 564 34,000  Level Gander Center
02:05AM 52.9333 -55.0000 74° East 500 575 34,000  Level Gander Center
02:06AM 52.9667 -54.8000 84° East 490 564 34,000  Level Gander Center
02:07AM 52.9833 -54.5500 63° Northeast 500 575 34,000  Level Gander Center
02:08AM 53.0333 -54.3833 83° East 490 564 34,000  Level Gander Center
02:09AM 53.0500 -54.1500 70° East 490 564 34,000  Level Gander Center
02:10AM 53.1000 -53.9167 67° East 500 575 34,000  Level Gander Center
02:11AM 53.1500 -53.7167 61° Northeast 490 564 34,000  Level Gander Center
02:12AM 53.2167 -53.5167 76° East 500 575 34,000  Level Gander Center
02:13AM 53.2500 -53.2833 69° East 490 564 34,000  Level Gander Center
02:14AM 53.3000 -53.0667 67° East 490 564 34,000  Level Gander Center
02:15AM 53.3500 -52.8667 67° East 490 564 34,000  Level Gander Center
02:16AM 53.4000 -52.6667 63° Northeast 490 564 34,000  Level Gander Center
02:17AM 53.4667 -52.4500 76° East 490 564 34,000  Level Gander Center
02:18AM 53.5000 -52.2167 67° East 490 564 34,000  Level Gander Center
02:19AM 53.5500 -52.0167 69° East 490 564 34,000  Level Gander Center
02:20AM 53.6000 -51.8000 74° East 490 564 34,000  Level Gander Center
02:21AM 53.6333 -51.6000 69° East 490 564 34,000  Level Gander Center
02:22AM 53.6833 -51.3833 70° East 490 564 34,000  Level Gander Center
02:25AM 53.8000 -50.8333 360° North 490 564 34,000  Level Gander Center
02:25AM 53.8000 -50.8333 71° East 490 564 34,000  Level Gander Center
02:32AM 54.1105 -49.2073 73° East  Level FlightAware Approximate
02:37AM 54.0330 -49.7673 72° East  Level FlightAware Approximate
02:38AM 54.0645 -49.5452 72° East  Level FlightAware Approximate
02:39AM 54.0955 -49.3227 73° East  Level FlightAware Approximate
02:40AM 54.1261 -49.0999 73° East  Level FlightAware Approximate
02:41AM 54.1563 -48.8767 73° East  Level FlightAware Approximate
02:42AM 54.1860 -48.6532 73° East  Level FlightAware Approximate
02:43AM 54.2154 -48.4294 73° East  Level FlightAware Approximate
02:44AM 54.2444 -48.2053 73° East  Level FlightAware Approximate
02:45AM 54.2729 -47.9809 74° East  Level FlightAware Approximate
02:46AM 54.3010 -47.7562 74° East  Level FlightAware Approximate
02:47AM 54.3287 -47.5311 74° East  Level FlightAware Approximate
02:48AM 54.3560 -47.3058 74° East  Level FlightAware Approximate
02:49AM 54.3783 -47.0788 74° East  Level FlightAware Approximate
02:50AM 54.4049 -46.8529 74° East  Level FlightAware Approximate
02:51AM 54.4311 -46.6268 75° East  Level FlightAware Approximate
02:52AM 54.4568 -46.4003 75° East  Level FlightAware Approximate
02:53AM 54.4821 -46.1736 75° East  Level FlightAware Approximate
02:54AM 54.5070 -45.9466 75° East  Level FlightAware Approximate
02:55AM 54.5220 -45.7172 75° East  Level FlightAware Approximate
02:56AM 54.5557 -45.4933 75° East  Level FlightAware Approximate
02:57AM 54.5889 -45.2691 76° East  Level FlightAware Approximate
02:58AM 54.6217 -45.0444 76° East  Level FlightAware Approximate
02:59AM 54.6541 -44.8195 76° East  Level FlightAware Approximate
03:00AM 54.6860 -44.5942 76° East  Level FlightAware Approximate
03:01AM 54.7176 -44.3685 76° East  Level FlightAware Approximate
03:02AM 54.7487 -44.1425 76° East  Level FlightAware Approximate
03:03AM 54.7794 -43.9161 77° East  Level FlightAware Approximate
03:04AM 54.8097 -43.6894 77° East  Level FlightAware Approximate
03:05AM 54.8395 -43.4624 77° East  Level FlightAware Approximate
03:06AM 54.8690 -43.2350 77° East  Level FlightAware Approximate
03:07AM 54.8980 -43.0073 77° East  Level FlightAware Approximate
03:08AM 54.9266 -42.7793 78° East  Level FlightAware Approximate
03:09AM 54.9547 -42.5509 78° East  Level FlightAware Approximate
03:10AM 54.9824 -42.3222 78° East  Level FlightAware Approximate
03:11AM 55.0098 -42.0932 78° East  Level FlightAware Approximate
03:12AM 55.0366 -41.8639 78° East  Level FlightAware Approximate
03:13AM 55.0631 -41.6343 78° East  Level FlightAware Approximate
03:14AM 55.0891 -41.4044 79° East  Level FlightAware Approximate
03:15AM 55.1146 -41.1742 79° East  Level FlightAware Approximate
03:16AM 55.1398 -40.9437 79° East  Level FlightAware Approximate
03:17AM 55.1645 -40.7130 79° East  Level FlightAware Approximate
03:18AM 55.1887 -40.4819 79° East  Level FlightAware Approximate
03:19AM 55.2126 -40.2506 80° East  Level FlightAware Approximate
03:20AM 55.2409 -40.0206 80° East  Level FlightAware Approximate
03:21AM 55.2688 -39.7904 80° East  Level FlightAware Approximate
03:22AM 55.2962 -39.5598 80° East  Level FlightAware Approximate
03:23AM 55.3232 -39.3289 80° East  Level FlightAware Approximate
03:24AM 55.3498 -39.0977 81° East  Level FlightAware Approximate
03:25AM 55.3760 -38.8662 81° East  Level FlightAware Approximate
03:26AM 55.4017 -38.6343 81° East  Level FlightAware Approximate
03:27AM 55.4269 -38.4022 81° East  Level FlightAware Approximate
03:28AM 55.4518 -38.1698 81° East  Level FlightAware Approximate
03:29AM 55.4762 -37.9371 82° East  Level FlightAware Approximate
03:30AM 55.5001 -37.7041 82° East  Level FlightAware Approximate
03:31AM 55.5236 -37.4709 82° East  Level FlightAware Approximate
03:32AM 55.5467 -37.2373 82° East  Level FlightAware Approximate
03:33AM 55.5693 -37.0035 82° East  Level FlightAware Approximate
03:34AM 55.5914 -36.7694 83° East  Level FlightAware Approximate
03:35AM 55.6132 -36.5351 83° East  Level FlightAware Approximate
03:36AM 55.6344 -36.3005 83° East  Level FlightAware Approximate
03:37AM 55.6553 -36.0656 83° East  Level FlightAware Approximate
03:38AM 55.6756 -35.8305 83° East  Level FlightAware Approximate
03:39AM 55.6956 -35.5952 84° East  Level FlightAware Approximate
03:40AM 55.7150 -35.3596 84° East  Level FlightAware Approximate
03:41AM 55.7341 -35.1238 84° East  Level FlightAware Approximate
03:42AM 55.7527 -34.8877 84° East  Level FlightAware Approximate
03:43AM 55.7708 -34.6515 85° East  Level FlightAware Approximate
03:44AM 55.7884 -34.4150 85° East  Level FlightAware Approximate
03:45AM 55.8056 -34.1783 85° East  Level FlightAware Approximate
03:46AM 55.8224 -33.9414 85° East  Level FlightAware Approximate
03:47AM 55.8387 -33.7043 85° East  Level FlightAware Approximate
03:48AM 55.8546 -33.4670 86° East  Level FlightAware Approximate
03:49AM 55.8699 -33.2295 86° East  Level FlightAware Approximate
03:50AM 55.8849 -32.9918 86° East  Level FlightAware Approximate
03:51AM 55.8993 -32.7540 86° East  Level FlightAware Approximate
03:52AM 55.9134 -32.5159 86° East  Level FlightAware Approximate
03:53AM 55.9269 -32.2777 87° East  Level FlightAware Approximate
03:54AM 55.9400 -32.0394 87° East  Level FlightAware Approximate
03:55AM 55.9527 -31.8009 87° East  Level FlightAware Approximate
03:56AM 55.9648 -31.5622 87° East  Level FlightAware Approximate
03:57AM 55.9765 -31.3234 88° East  Level FlightAware Approximate
03:58AM 55.9878 -31.0844 88° East  Level FlightAware Approximate
03:59AM 55.9986 -30.8453 88° East  Level FlightAware Approximate
04:00AM 56.0089 -30.6061 88° East  Level FlightAware Approximate
04:01AM 56.0188 -30.3667 88° East  Level FlightAware Approximate
04:02AM 56.0282 -30.1273 89° East  Level FlightAware Approximate
04:03AM 56.0041 -29.8972 89° East  Level FlightAware Approximate
04:04AM 56.0054 -29.6572 89° East  Level FlightAware Approximate
04:05AM 56.0062 -29.4173 89° East  Level FlightAware Approximate
04:06AM 56.0066 -29.1773 89° East  Level FlightAware Approximate
04:07AM 56.0065 -28.9373 90° East  Level FlightAware Approximate
04:08AM 56.0059 -28.6974 90° East  Level FlightAware Approximate
04:09AM 56.0048 -28.4575 90° East  Level FlightAware Approximate
04:10AM 56.0033 -28.2175 90° East  Level FlightAware Approximate
04:11AM 56.0014 -27.9776 90° East  Level FlightAware Approximate
04:12AM 55.9989 -27.7377 90° East  Level FlightAware Approximate
04:13AM 55.9960 -27.4979 91° East  Level FlightAware Approximate
04:14AM 55.9926 -27.2581 91° East  Level FlightAware Approximate
04:15AM 55.9888 -27.0183 91° East  Level FlightAware Approximate
04:16AM 55.9845 -26.7786 91° East  Level FlightAware Approximate
04:17AM 55.9797 -26.5389 91° East  Level FlightAware Approximate
04:18AM 55.9745 -26.2994 92° East  Level FlightAware Approximate
04:19AM 55.9688 -26.0598 92° East  Level FlightAware Approximate
04:20AM 55.9626 -25.8204 92° East  Level FlightAware Approximate
04:21AM 55.9560 -25.5810 92° East  Level FlightAware Approximate
04:22AM 55.9489 -25.3417 92° East  Level FlightAware Approximate
04:23AM 55.9413 -25.1025 93° East  Level FlightAware Approximate
04:24AM 55.9333 -24.8634 93° East  Level FlightAware Approximate
04:25AM 55.9248 -24.6244 93° East  Level FlightAware Approximate
04:26AM 55.9159 -24.3855 93° East  Level FlightAware Approximate
04:27AM 55.9065 -24.1467 93° East  Level FlightAware Approximate
04:28AM 55.8966 -23.9081 94° East  Level FlightAware Approximate
04:29AM 55.8863 -23.6695 94° East  Level FlightAware Approximate
04:30AM 55.8755 -23.4311 94° East  Level FlightAware Approximate
04:31AM 55.8643 -23.1929 94° East  Level FlightAware Approximate
04:32AM 55.8526 -22.9547 94° East  Level FlightAware Approximate
04:33AM 55.8404 -22.7168 94° East  Level FlightAware Approximate
04:34AM 55.8278 -22.4789 95° East  Level FlightAware Approximate
04:35AM 55.8147 -22.2412 95° East  Level FlightAware Approximate
04:36AM 55.8011 -22.0037 95° East  Level FlightAware Approximate
04:37AM 55.7871 -21.7664 95° East  Level FlightAware Approximate
04:38AM 55.7727 -21.5292 95° East  Level FlightAware Approximate
04:39AM 55.7577 -21.2922 96° East  Level FlightAware Approximate
04:40AM 55.7424 -21.0554 96° East  Level FlightAware Approximate
04:41AM 55.7265 -20.8188 96° East  Level FlightAware Approximate
04:42AM 55.7103 -20.5824 96° East  Level FlightAware Approximate
04:43AM 55.6935 -20.3461 96° East  Level FlightAware Approximate
04:44AM 55.6737 -20.1108 96° East  Level FlightAware Approximate
04:45AM 55.6535 -19.8757 97° East  Level FlightAware Approximate
04:46AM 55.6328 -19.6408 97° East  Level FlightAware Approximate
04:47AM 55.6116 -19.4062 97° East  Level FlightAware Approximate
04:48AM 55.5900 -19.1718 97° East  Level FlightAware Approximate
04:49AM 55.5680 -18.9377 97° East  Level FlightAware Approximate
04:50AM 55.5455 -18.7038 97° East  Level FlightAware Approximate
04:51AM 55.5225 -18.4702 98° East  Level FlightAware Approximate
04:52AM 55.4991 -18.2369 98° East  Level FlightAware Approximate
04:53AM 55.4753 -18.0039 98° East  Level FlightAware Approximate
04:54AM 55.4510 -17.7712 98° East  Level FlightAware Approximate
04:55AM 55.4263 -17.5387 98° East  Level FlightAware Approximate
04:56AM 55.4012 -17.3066 98° East  Level FlightAware Approximate
04:57AM 55.3756 -17.0747 99° East  Level FlightAware Approximate
04:58AM 55.3496 -16.8431 99° East  Level FlightAware Approximate
04:59AM 55.3231 -16.6119 99° East  Level FlightAware Approximate
05:00AM 55.2962 -16.3810 99° East  Level FlightAware Approximate
05:01AM 55.2689 -16.1503 99° East  Level FlightAware Approximate
05:02AM 55.2411 -15.9200 99° East  Level FlightAware Approximate
05:03AM 55.2129 -15.6901 99° East  Level FlightAware Approximate
05:04AM 55.1843 -15.4604 100° East  Level FlightAware Approximate
05:05AM 55.1553 -15.2311 100° East  Level FlightAware Approximate
05:06AM 55.1258 -15.0021 100° East  Level FlightAware Approximate
05:07AM 55.0958 -14.7735 100° East  Level FlightAware Approximate
05:08AM 55.0655 -14.5452 100° East  Level FlightAware Approximate
05:09AM 55.0347 -14.3172 100° East  Level FlightAware Approximate
05:10AM 55.0035 -14.0896 100° East  Level FlightAware Approximate
05:11AM 54.9719 -13.8624 100° East  Level FlightAware Approximate
05:12AM 54.9398 -13.6355 101° East  Level FlightAware Approximate
05:13AM 54.9074 -13.4090 101° East  Level FlightAware Approximate
05:14AM 54.8745 -13.1828 101° East  Level FlightAware Approximate
05:15AM 54.8412 -12.9571 101° East  Level FlightAware Approximate
05:16AM 54.8074 -12.7317 101° East  Level FlightAware Approximate
05:17AM 54.7733 -12.5066 101° East  Level FlightAware Approximate
05:18AM 54.7388 -12.2820 101° East  Level FlightAware Approximate
05:19AM 54.7038 -12.0577 101° East  Level FlightAware Approximate
05:20AM 54.6684 -11.8338 101° East  Level FlightAware Approximate
05:21AM 54.6326 -11.6104 101° East  Level FlightAware Approximate
05:22AM 54.5964 -11.3873 101° East  Level FlightAware Approximate
05:23AM 54.5598 -11.1646 102° East  Level FlightAware Approximate
05:24AM 54.5227 -10.9423 102° East  Level FlightAware Approximate
05:25AM 54.4853 -10.7205 102° East  Level FlightAware Approximate
05:26AM 54.4475 -10.4990 102° East  Level FlightAware Approximate
05:27AM 54.4092 -10.2779 102° East  Level FlightAware Approximate
05:28AM 54.3790 -10.0534 102° East  Level FlightAware Approximate
05:29AM 54.3483 -9.8293 102° East  Level FlightAware Approximate
05:30AM 54.3172 -9.6054 102° East  Level FlightAware Approximate
05:31AM 54.2857 -9.3819 102° East  Level FlightAware Approximate
05:32AM 54.2538 -9.1588 102° East  Level FlightAware Approximate
05:33AM 54.2215 -8.9360 102° East  Level FlightAware Approximate
05:34AM 54.1888 -8.7135 103° East  Level FlightAware Approximate
05:35AM 54.1556 -8.4914 103° East  Level FlightAware Approximate
05:36AM 54.1221 -8.2697 103° East  Level FlightAware Approximate
05:37AM 54.0881 -8.0483 103° East  Level FlightAware Approximate
05:38AM 54.0537 -7.8273 103° East  Level FlightAware Approximate
05:39AM 53.9991 -7.6188 103° East  Level FlightAware Approximate
05:40AM 53.9440 -7.4108 102° East  Level FlightAware Approximate
05:41AM 53.8886 -7.2033 102° East  Level FlightAware Approximate
05:42AM 53.8328 -6.9964 101° East  Level FlightAware Approximate
05:43AM 53.7767 -6.7901 100° East  Level FlightAware Approximate
05:44AM 53.7202 -6.5843 99° East  Level FlightAware Approximate
05:45AM 53.6634 -6.3790 98° East  Level FlightAware Approximate
05:46AM 53.6062 -6.1743 97° East  Level FlightAware Approximate
05:47AM 53.5487 -5.9702 96° East  Level FlightAware Approximate
05:48AM 53.4908 -5.7666 94° East  Level FlightAware Approximate
05:49AM 53.3600 -3.3936 116° Southeast 536 617 34,000  Level FlightAware ADS-B
05:50AM 53.3267 -3.2790 117° Southeast 539 620 34,000  Level FlightAware ADS-B
05:50AM 53.2896 -3.1574 117° Southeast 540 621 34,000  Level FlightAware ADS-B
05:51AM 53.2538 -3.0418 118° Southeast 540 621 34,000  Level FlightAware ADS-B
05:51AM 53.2175 -2.9256 118° Southeast 540 621 34,000  Level FlightAware ADS-B
05:52AM 53.1823 -2.8131 118° Southeast 539 620 34,000  Level FlightAware ADS-B
05:52AM 53.1510 -2.7150 131° Southeast 539 620 34,000  Level FlightAware ADS-B
05:53AM 53.0890 -2.5974 143° Southeast 540 621 34,000  Level FlightAware ADS-B
05:53AM 53.0785 -2.5843 144° Southeast 536 617 34,000  Level FlightAware ADS-B
05:53AM 53.0172 -2.5104 144° Southeast 535 616 34,000 -420 Level FlightAware ADS-B
05:54AM 52.9520 -2.4312 144° Southeast 535 616 33,600 -1,260 Descending FlightAware ADS-B
05:54AM 52.8897 -2.3558 144° Southeast 537 618 32,700 -1,740 Descending FlightAware ADS-B
05:55AM 52.8267 -2.2804 145° Southeast 521 600 31,800 -1,800 Descending FlightAware ADS-B
05:55AM 52.7739 -2.2185 148° Southeast 510 587 30,900 -1,920 Descending FlightAware ADS-B
05:56AM 52.7093 -2.1516 148° Southeast 500 575 29,900 -2,100 Descending FlightAware ADS-B
05:57AM 52.6456 -2.0856 148° Southeast 493 567 28,600 -2,280 Descending FlightAware ADS-B
05:57AM 52.5812 -2.0199 148° Southeast 483 556 27,400 -2,160 Descending FlightAware ADS-B
05:58AM 52.5200 -1.9579 149° Southeast 473 544 26,200 -2,100 Descending FlightAware ADS-B
05:58AM 52.4626 -1.9002 148° Southeast 462 532 25,200 -1,980 Descending FlightAware ADS-B
05:59AM 52.4072 -1.8445 149° Southeast 457 526 24,200 -1,920 Descending FlightAware ADS-B
05:59AM 52.3526 -1.7904 149° Southeast 453 521 23,300 -1,680 Descending FlightAware ADS-B
06:00AM 52.2995 -1.7380 149° Southeast 445 512 22,500 -1,680 Descending FlightAware ADS-B
06:00AM 52.2443 -1.6840 149° Southeast 436 502 21,600 -1,680 Descending FlightAware ADS-B
06:01AM 52.1924 -1.6335 149° Southeast 429 494 20,800 -1,620 Descending FlightAware ADS-B
06:01AM 52.1413 -1.5843 150° Southeast 417 480 20,000 -1,500 Descending FlightAware ADS-B
06:02AM 52.0905 -1.5362 150° Southeast 408 470 19,300 -1,500 Descending FlightAware ADS-B
06:02AM 52.0412 -1.4895 150° Southeast 402 463 18,500 -1,620 Descending FlightAware ADS-B
06:03AM 51.9927 -1.4444 150° Southeast 397 457 17,700 -1,620 Descending FlightAware ADS-B
06:03AM 51.9451 -1.4000 150° Southeast 393 452 16,900 -1,620 Descending FlightAware ADS-B
06:04AM 51.9096 -1.3664 147° Southeast 390 449 16,300 -1,620 Descending FlightAware ADS-B
06:04AM 51.9051 -1.3616 140° Southeast 389 448 16,200 -1,500 Descending FlightAware ADS-B
06:04AM 51.8935 -1.3459 131° Southeast 389 448 16,000 -1,440 Descending FlightAware ADS-B
06:04AM 51.8832 -1.3269 123° Southeast 387 445 15,800 -1,500 Descending FlightAware ADS-B
06:04AM 51.8760 -1.3090 116° Southeast 384 442 15,600 -1,620 Descending FlightAware ADS-B
06:04AM 51.8696 -1.2876 110° East 380 437 15,400 -1,500 Descending FlightAware ADS-B
06:05AM 51.8557 -1.2252 107° East 374 430 14,800 -1,320 Descending FlightAware ADS-B
06:05AM 51.8404 -1.1448 107° East 364 419 14,200 -1,020 Descending FlightAware ADS-B
06:06AM 51.8255 -1.0667 108° East 354 407 13,800 -1,080 Descending FlightAware ADS-B
06:06AM 51.8152 -1.0158 108° East 350 403 13,300 -1,140 Descending FlightAware ADS-B
06:06AM 51.8035 -0.9591 109° East 338 389 13,000 -720 Descending FlightAware ADS-B
06:07AM 51.7979 -0.9325 109° East 332 382 12,900 -900 Descending FlightAware ADS-B
06:07AM 51.7871 -0.8809 109° East 328 377 12,500 -1,320 Descending FlightAware ADS-B
06:07AM 51.7727 -0.8120 109° East 325 374 11,800 -1,320 Descending FlightAware ADS-B
06:08AM 51.7598 -0.7509 109° East 320 368 11,300 -1,140 Descending FlightAware ADS-B
06:08AM 51.7515 -0.7117 109° East 316 364 11,000 -960 Descending FlightAware ADS-B
06:09AM 51.7419 -0.6658 109° East 307 353 10,700 -720 Descending FlightAware ADS-B
06:09AM 51.7283 -0.6006 109° East 291 335 10,400 -720 Descending FlightAware ADS-B
06:10AM 51.7155 -0.5395 110° East 279 321 10,000 -600 Descending FlightAware ADS-B
06:10AM 51.7116 -0.5220 115° Southeast 276 318 10,000  Level FlightAware ADS-B
06:10AM 51.7099 -0.5160 124° Southeast 278 320 10,000  Level FlightAware ADS-B
06:10AM 51.7064 -0.5076 133° Southeast 280 322 10,000  Level FlightAware ADS-B
06:10AM 51.7020 -0.5001 141° Southeast 283 326 10,000  Level FlightAware ADS-B
06:10AM 51.6977 -0.4945 150° Southeast 283 326 10,000  Level FlightAware ADS-B
06:10AM 51.6916 -0.4888 159° South 282 325 10,000  Level FlightAware ADS-B
06:10AM 51.6835 -0.4838 168° South 281 323 10,000  Level FlightAware ADS-B
06:10AM 51.6795 -0.4825 180° South 280 322 10,000  Level FlightAware ADS-B
06:10AM 51.6663 -0.4826 193° South 274 315 10,000  Level FlightAware ADS-B
06:10AM 51.6619 -0.4842 201° Southwest 270 311 10,000  Level FlightAware ADS-B
06:11AM 51.6585 -0.4863 204° Southwest 268 308 10,000 -900 Level FlightAware ADS-B
06:11AM 51.6542 -0.4894 210° Southwest 264 304 9,900 -900 Descending FlightAware ADS-B
06:11AM 51.6508 -0.4925 218° Southwest 261 300 9,900 -900 Level FlightAware ADS-B
06:11AM 51.6472 -0.4971 224° Southwest 257 296 9,800 -780 Descending FlightAware ADS-B
06:11AM 51.6437 -0.5026 230° Southwest 253 291 9,800 -780 Level FlightAware ADS-B
06:11AM 51.6411 -0.5076 238° Southwest 249 287 9,700 -1,380 Descending FlightAware ADS-B
06:11AM 51.6382 -0.5150 245° Southwest 244 281 9,600 -780 Descending FlightAware ADS-B
06:11AM 51.6367 -0.5201 248° West 241 277 9,600 -1,020 Level FlightAware ADS-B
06:11AM 51.6354 -0.5253 254° West 239 275 9,500 -900 Descending FlightAware ADS-B
06:11AM 51.6343 -0.5314 263° West 235 270 9,500 -780 Level FlightAware ADS-B
06:11AM 51.6337 -0.5389 263° West 232 267 9,400 -1,740 Descending FlightAware ADS-B
06:11AM 51.6333 -0.5445 275° West 230 265 9,300 -1,800 Descending FlightAware ADS-B
06:11AM 51.6339 -0.5567 283° West 227 261 9,100 -1,500 Descending FlightAware ADS-B
06:11AM 51.6350 -0.5646 290° West 226 260 9,000 -1,380 Descending FlightAware ADS-B
06:11AM 51.6365 -0.5711 292° West 225 259 8,900 -1,500 Descending FlightAware ADS-B
06:12AM 51.6379 -0.5766 301° West 225 259 8,800 -1,500 Descending FlightAware ADS-B
06:12AM 51.6403 -0.5831 299° West 226 260 8,700 -1,380 Descending FlightAware ADS-B
06:12AM 51.6427 -0.5900 298° West 227 261 8,600 -1,380 Descending FlightAware ADS-B
06:12AM 51.6448 -0.5965 289° West 228 262 8,500 -1,320 Descending FlightAware ADS-B
06:12AM 51.6481 -0.6116 290° West 230 265 8,300 -1,440 Descending FlightAware ADS-B
06:12AM 51.6507 -0.6229 292° West 229 264 8,100 -1,140 Descending FlightAware ADS-B
06:12AM 51.6540 -0.6360 295° West 227 261 8,000 -300 Descending FlightAware ADS-B
06:12AM 51.6607 -0.6591 296° West 223 257 8,000  Level FlightAware ADS-B
06:13AM 51.6655 -0.6753 297° West 223 257 8,000  Level FlightAware ADS-B
06:13AM 51.6707 -0.6918 299° West 222 255 8,000  Level FlightAware ADS-B
06:13AM 51.6731 -0.6987 308° West 221 254 8,000  Level FlightAware ADS-B
06:13AM 51.6765 -0.7057 326° Northwest 221 254 8,000  Level FlightAware ADS-B
06:13AM 51.6889 -0.7192 335° Northwest 224 258 8,000  Level FlightAware ADS-B
06:13AM 51.6922 -0.7216 340° North 225 259 8,000  Level FlightAware ADS-B
06:13AM 51.6964 -0.7241 345° North 227 261 8,000  Level FlightAware ADS-B
06:13AM 51.7016 -0.7264 352° North 229 264 8,000  Level FlightAware ADS-B
06:13AM 51.7052 -0.7272 358° North 231 266 8,000  Level FlightAware ADS-B
06:14AM 51.7104 -0.7275 North 233 268 8,000  Level FlightAware ADS-B
06:14AM 51.7151 -0.7269 North 234 269 8,000  Level FlightAware ADS-B
06:14AM 51.7182 -0.7262 14° North 236 272 8,000  Level FlightAware ADS-B
06:14AM 51.7225 -0.7245 19° North 238 274 8,000  Level FlightAware ADS-B
06:14AM 51.7255 -0.7228 27° Northeast 239 275 8,000  Level FlightAware ADS-B
06:14AM 51.7311 -0.7183 35° Northeast 242 278 8,000  Level FlightAware ADS-B
06:14AM 51.7349 -0.7140 40° Northeast 245 282 8,000  Level FlightAware ADS-B
06:14AM 51.7381 -0.7098 48° Northeast 247 284 8,000  Level FlightAware ADS-B
06:14AM 51.7421 -0.7027 54° Northeast 251 289 8,000  Level FlightAware ADS-B
06:14AM 51.7442 -0.6980 59° Northeast 254 292 8,000  Level FlightAware ADS-B
06:14AM 51.7465 -0.6918 67° East 257 296 8,000  Level FlightAware ADS-B
06:14AM 51.7480 -0.6860 69° East 259 298 8,000  Level FlightAware ADS-B
06:14AM 51.7494 -0.6800 78° East 262 302 8,000  Level FlightAware ADS-B
06:14AM 51.7503 -0.6732 82° East 264 304 8,000  Level FlightAware ADS-B
06:14AM 51.7510 -0.6651 91° East 265 305 8,000  Level FlightAware ADS-B
06:15AM 51.7509 -0.6581 97° East 266 306 8,000  Level FlightAware ADS-B
06:15AM 51.7500 -0.6469 106° East 269 310 8,000  Level FlightAware ADS-B
06:15AM 51.7490 -0.6411 110° East 270 311 8,000  Level FlightAware ADS-B
06:15AM 51.7476 -0.6349 116° Southeast 270 311 8,000  Level FlightAware ADS-B
06:15AM 51.7423 -0.6171 114° Southeast 270 311 8,000  Level FlightAware ADS-B
06:15AM 51.7346 -0.5895 115° Southeast 271 312 8,000  Level FlightAware ADS-B
06:15AM 51.7297 -0.5727 116° Southeast 271 312 8,000  Level FlightAware ADS-B
06:16AM 51.7210 -0.5445 118° Southeast 271 312 8,000  Level FlightAware ADS-B
06:16AM 51.7124 -0.5180 131° Southeast 270 311 8,000  Level FlightAware ADS-B
06:16AM 51.7023 -0.4993 149° Southeast 270 311 8,000  Level FlightAware ADS-B
06:16AM 51.6985 -0.4955 154° Southeast 268 308 8,000  Level FlightAware ADS-B
06:16AM 51.6942 -0.4922 160° South 267 307 8,000  Level FlightAware ADS-B
06:16AM 51.6890 -0.4891 161° South 268 308 8,000  Level FlightAware ADS-B
06:16AM 51.6719 -0.4799 161° South 271 312 8,000  Level FlightAware ADS-B
06:17AM 51.6540 -0.4700 161° South 268 308 8,000  Level FlightAware ADS-B
06:17AM 51.6362 -0.4598 158° South 268 308 8,000  Level FlightAware ADS-B
06:17AM 51.6285 -0.4549 151° Southeast 269 310 8,000  Level FlightAware ADS-B
06:17AM 51.6236 -0.4504 144° Southeast 270 311 8,000  Level FlightAware ADS-B
06:17AM 51.6187 -0.4446 135° Southeast 270 311 8,000 -600 Level FlightAware ADS-B
06:17AM 51.6060 -0.4240 128° Southeast 267 307 7,800 -960 Descending FlightAware ADS-B
06:18AM 51.6026 -0.4170 116° Southeast 266 306 7,700 -1,020 Descending FlightAware ADS-B
06:18AM 51.5986 -0.4036 109° East 264 304 7,600 -960 Descending FlightAware ADS-B
06:18AM 51.5964 -0.3931 108° East 263 303 7,500 -1,380 Descending FlightAware ADS-B
06:18AM 51.5901 -0.3627 110° East 263 303 7,100 -1,320 Descending FlightAware ADS-B
06:18AM 51.5833 -0.3321 109° East 260 299 6,800 -960 Descending FlightAware ADS-B
06:19AM 51.5770 -0.3023 107° East 256 295 6,600 -720 Descending FlightAware ADS-B
06:19AM 51.5742 -0.2873 104° East 255 293 6,500 -1,140 Descending FlightAware ADS-B
06:19AM 51.5703 -0.2614 104° East 254 292 6,200 -1,260 Descending FlightAware ADS-B
06:19AM 51.5660 -0.2335 103° East 255 293 5,900 -1,140 Descending FlightAware ADS-B
06:19AM 51.5615 -0.2017 104° East 252 290 5,600 -900 Descending FlightAware ADS-B
06:20AM 51.5572 -0.1732 103° East 250 288 5,400 -960 Descending FlightAware ADS-B
06:20AM 51.5528 -0.1428 103° East 248 285 5,100 -1,260 Descending FlightAware ADS-B
06:20AM 51.5482 -0.1118 104° East 248 285 4,700 -1,200 Descending FlightAware ADS-B
06:21AM 51.5435 -0.0817 104° East 247 284 4,400 -1,140 Descending FlightAware ADS-B
06:21AM 51.5391 -0.0527 122° Southeast 242 278 4,100 -660 Descending FlightAware ADS-B
06:21AM 51.5320 -0.0346 142° Southeast 234 269 4,100 -300 Level FlightAware ADS-B
06:21AM 51.5262 -0.0273 184° South 221 254 4,000 -600 Descending FlightAware ADS-B
06:22AM 51.4977 -0.0304 233° Southwest 219 252 3,700 -480 Descending FlightAware ADS-B
06:22AM 51.4947 -0.0368 243° Southwest 178 205 3,700  Level FlightAware ADS-B
06:22AM 51.4915 -0.0468 247° West 177 204 3,700 -240 Level FlightAware ADS-B
06:22AM 51.4845 -0.0732 244° Southwest 179 206 3,600 -300 Descending FlightAware ADS-B
06:23AM 51.4776 -0.0961 245° Southwest 174 200 3,500 -540 Descending FlightAware ADS-B
06:23AM 51.4717 -0.1160 245° Southwest 177 204 3,300 -600 Descending FlightAware ADS-B
06:23AM 51.4662 -0.1347 245° Southwest 177 204 3,200 -660 Descending FlightAware ADS-B
06:23AM 51.4618 -0.1499 246° West 178 205 3,000 -840 Descending FlightAware ADS-B
06:24AM 51.4583 -0.1623 245° Southwest 180 207 2,900 -960 Descending FlightAware ADS-B
06:24AM 51.4532 -0.1795 250° West 182 209 2,600 -960 Descending FlightAware ADS-B
06:24AM 51.4519 -0.1853 257° West 181 208 2,600 -1,200 Level FlightAware ADS-B
06:24AM 51.4507 -0.1934 264° West 180 207 2,400 -1,680 Descending FlightAware ADS-B
06:24AM 51.4503 -0.1999 271° West 179 206 2,300 -960 Descending FlightAware ADS-B
06:24AM 51.4504 -0.2094 271° West 176 203 2,200 -900 Descending FlightAware ADS-B
06:25AM 51.4507 -0.2430 269° West 171 197 1,800 -1,080 Descending FlightAware ADS-B
06:25AM 51.4505 -0.2593 282° West 160 184 1,500 -1,440 Descending FlightAware ADS-B
06:32AM 51.6428 -1.7668 102° East  Level Estimated
06:33AM 51.4667 -0.4500 102° East  Level FlightAware Approximate